sensor_id;sensor_type;location;lat;lon;timestamp;temperature;humidity
67722;SHT31;58309;45.292;11.820;2023-07-13T00:00:17;25.69;77.22
67722;SHT31;58309;45.292;11.820;2023-07-13T00:02:43;25.61;77.11
67722;SHT31;58309;45.292;11.820;2023-07-13T00:05:09;25.55;76.47
67722;SHT31;58309;45.292;11.820;2023-07-13T00:07:35;25.32;75.27
67722;SHT31;58309;45.292;11.820;2023-07-13T00:10:02;25.15;75.59
67722;SHT31;58309;45.292;11.820;2023-07-13T00:12:30;24.90;76.12
67722;SHT31;58309;45.292;11.820;2023-07-13T00:15:01;24.70;76.85
67722;SHT31;58309;45.292;11.820;2023-07-13T00:17:28;24.59;77.13
67722;SHT31;58309;45.292;11.820;2023-07-13T00:19:54;24.48;77.90
67722;SHT31;58309;45.292;11.820;2023-07-13T00:22:21;24.37;77.77
67722;SHT31;58309;45.292;11.820;2023-07-13T00:24:47;24.29;79.17
67722;SHT31;58309;45.292;11.820;2023-07-13T00:27:12;24.22;79.42
67722;SHT31;58309;45.292;11.820;2023-07-13T00:29:38;24.14;79.59
67722;SHT31;58309;45.292;11.820;2023-07-13T00:32:05;24.05;79.27
67722;SHT31;58309;45.292;11.820;2023-07-13T00:34:31;24.00;80.33
67722;SHT31;58309;45.292;11.820;2023-07-13T00:36:56;23.97;80.32
67722;SHT31;58309;45.292;11.820;2023-07-13T00:39:22;23.89;80.56
67722;SHT31;58309;45.292;11.820;2023-07-13T00:41:48;23.82;81.34
67722;SHT31;58309;45.292;11.820;2023-07-13T00:44:14;23.70;82.36
67722;SHT31;58309;45.292;11.820;2023-07-13T00:46:40;23.55;83.02
67722;SHT31;58309;45.292;11.820;2023-07-13T00:49:10;23.47;83.13
67722;SHT31;58309;45.292;11.820;2023-07-13T00:51:41;23.40;83.80
67722;SHT31;58309;45.292;11.820;2023-07-13T00:54:11;23.33;83.64
67722;SHT31;58309;45.292;11.820;2023-07-13T00:56:39;23.23;83.77
67722;SHT31;58309;45.292;11.820;2023-07-13T00:59:08;23.14;84.01
67722;SHT31;58309;45.292;11.820;2023-07-13T01:01:34;23.06;83.92
67722;SHT31;58309;45.292;11.820;2023-07-13T01:04:03;23.03;83.51
67722;SHT31;58309;45.292;11.820;2023-07-13T01:06:28;22.92;83.31
67722;SHT31;58309;45.292;11.820;2023-07-13T01:08:56;22.82;83.83
67722;SHT31;58309;45.292;11.820;2023-07-13T01:11:23;22.81;84.03
67722;SHT31;58309;45.292;11.820;2023-07-13T01:13:49;22.75;83.47
67722;SHT31;58309;45.292;11.820;2023-07-13T01:16:24;22.75;83.38
67722;SHT31;58309;45.292;11.820;2023-07-13T01:18:50;22.72;83.22
67722;SHT31;58309;45.292;11.820;2023-07-13T01:21:15;22.68;82.59
67722;SHT31;58309;45.292;11.820;2023-07-13T01:23:41;22.68;82.74
67722;SHT31;58309;45.292;11.820;2023-07-13T01:26:06;22.64;82.60
67722;SHT31;58309;45.292;11.820;2023-07-13T01:28:32;22.61;82.79
67722;SHT31;58309;45.292;11.820;2023-07-13T01:31:02;22.55;83.03
67722;SHT31;58309;45.292;11.820;2023-07-13T01:33:28;22.52;82.94
67722;SHT31;58309;45.292;11.820;2023-07-13T01:35:54;22.49;82.77
67722;SHT31;58309;45.292;11.820;2023-07-13T01:38:24;22.48;82.92
67722;SHT31;58309;45.292;11.820;2023-07-13T01:40:51;22.48;82.66
67722;SHT31;58309;45.292;11.820;2023-07-13T01:43:17;22.47;83.27
67722;SHT31;58309;45.292;11.820;2023-07-13T01:45:43;22.44;83.02
67722;SHT31;58309;45.292;11.820;2023-07-13T01:48:09;22.41;83.17
67722;SHT31;58309;45.292;11.820;2023-07-13T01:50:35;22.38;83.48
67722;SHT31;58309;45.292;11.820;2023-07-13T01:53:01;22.35;84.36
67722;SHT31;58309;45.292;11.820;2023-07-13T01:55:27;22.38;83.86
67722;SHT31;58309;45.292;11.820;2023-07-13T01:57:53;22.35;84.31
67722;SHT31;58309;45.292;11.820;2023-07-13T02:00:19;22.30;84.39
67722;SHT31;58309;45.292;11.820;2023-07-13T02:02:44;22.28;84.48
67722;SHT31;58309;45.292;11.820;2023-07-13T02:05:11;22.21;84.88
67722;SHT31;58309;45.292;11.820;2023-07-13T02:07:37;22.17;84.59
67722;SHT31;58309;45.292;11.820;2023-07-13T02:10:02;22.11;85.11
67722;SHT31;58309;45.292;11.820;2023-07-13T02:12:28;22.07;85.28
67722;SHT31;58309;45.292;11.820;2023-07-13T02:14:53;22.01;85.02
67722;SHT31;58309;45.292;11.820;2023-07-13T02:17:18;22.01;86.10
67722;SHT31;58309;45.292;11.820;2023-07-13T02:19:44;22.00;85.47
67722;SHT31;58309;45.292;11.820;2023-07-13T02:22:09;22.00;85.65
67722;SHT31;58309;45.292;11.820;2023-07-13T02:24:35;21.98;85.45
67722;SHT31;58309;45.292;11.820;2023-07-13T02:27:00;22.00;85.46
67722;SHT31;58309;45.292;11.820;2023-07-13T02:29:26;21.98;85.65
67722;SHT31;58309;45.292;11.820;2023-07-13T02:31:51;22.01;85.73
67722;SHT31;58309;45.292;11.820;2023-07-13T02:34:16;22.01;86.67
67722;SHT31;58309;45.292;11.820;2023-07-13T02:36:42;22.00;86.33
67722;SHT31;58309;45.292;11.820;2023-07-13T02:39:08;22.00;86.58
67722;SHT31;58309;45.292;11.820;2023-07-13T02:41:34;21.98;86.60
67722;SHT31;58309;45.292;11.820;2023-07-13T02:43:59;21.98;86.12
67722;SHT31;58309;45.292;11.820;2023-07-13T02:46:32;21.98;86.44
67722;SHT31;58309;45.292;11.820;2023-07-13T02:48:59;21.97;86.44
67722;SHT31;58309;45.292;11.820;2023-07-13T02:51:25;21.94;86.16
67722;SHT31;58309;45.292;11.820;2023-07-13T02:53:51;21.97;86.06
67722;SHT31;58309;45.292;11.820;2023-07-13T02:56:16;21.94;86.43
67722;SHT31;58309;45.292;11.820;2023-07-13T02:58:42;21.90;86.30
67722;SHT31;58309;45.292;11.820;2023-07-13T03:01:09;21.87;86.20
67722;SHT31;58309;45.292;11.820;2023-07-13T03:03:35;21.84;86.28
67722;SHT31;58309;45.292;11.820;2023-07-13T03:06:02;21.77;86.40
67722;SHT31;58309;45.292;11.820;2023-07-13T03:08:28;21.77;86.98
67722;SHT31;58309;45.292;11.820;2023-07-13T03:11:09;21.72;87.36
67722;SHT31;58309;45.292;11.820;2023-07-13T03:13:36;21.67;87.38
67722;SHT31;58309;45.292;11.820;2023-07-13T03:16:02;21.63;87.76
67722;SHT31;58309;45.292;11.820;2023-07-13T03:18:28;21.62;87.79
67722;SHT31;58309;45.292;11.820;2023-07-13T03:20:53;21.62;88.05
67722;SHT31;58309;45.292;11.820;2023-07-13T03:23:20;21.62;88.19
67722;SHT31;58309;45.292;11.820;2023-07-13T03:25:46;21.66;88.36
67722;SHT31;58309;45.292;11.820;2023-07-13T03:28:12;21.69;88.38
67722;SHT31;58309;45.292;11.820;2023-07-13T03:30:38;21.70;87.89
67722;SHT31;58309;45.292;11.820;2023-07-13T03:33:03;21.73;87.86
67722;SHT31;58309;45.292;11.820;2023-07-13T03:35:29;21.76;88.00
67722;SHT31;58309;45.292;11.820;2023-07-13T03:37:55;21.80;88.16
67722;SHT31;58309;45.292;11.820;2023-07-13T03:40:20;21.80;87.55
67722;SHT31;58309;45.292;11.820;2023-07-13T03:42:46;21.82;87.87
67722;SHT31;58309;45.292;11.820;2023-07-13T03:45:11;21.80;87.95
67722;SHT31;58309;45.292;11.820;2023-07-13T03:47:37;21.82;88.16
67722;SHT31;58309;45.292;11.820;2023-07-13T03:50:03;21.73;88.45
67722;SHT31;58309;45.292;11.820;2023-07-13T03:52:28;21.67;89.19
67722;SHT31;58309;45.292;11.820;2023-07-13T03:54:54;21.62;89.73
67722;SHT31;58309;45.292;11.820;2023-07-13T03:57:19;21.56;89.63
67722;SHT31;58309;45.292;11.820;2023-07-13T03:59:45;21.50;90.58
67722;SHT31;58309;45.292;11.820;2023-07-13T04:02:10;21.46;90.19
67722;SHT31;58309;45.292;11.820;2023-07-13T04:04:35;21.39;90.91
67722;SHT31;58309;45.292;11.820;2023-07-13T04:07:01;21.41;91.01
67722;SHT31;58309;45.292;11.820;2023-07-13T04:09:26;21.43;91.14
67722;SHT31;58309;45.292;11.820;2023-07-13T04:11:52;21.42;91.36
67722;SHT31;58309;45.292;11.820;2023-07-13T04:14:17;21.41;91.21
67722;SHT31;58309;45.292;11.820;2023-07-13T04:16:43;21.36;91.41
67722;SHT31;58309;45.292;11.820;2023-07-13T04:19:09;21.35;91.71
67722;SHT31;58309;45.292;11.820;2023-07-13T04:21:36;21.33;91.53
67722;SHT31;58309;45.292;11.820;2023-07-13T04:24:02;21.35;91.39
67722;SHT31;58309;45.292;11.820;2023-07-13T04:26:29;21.39;91.69
67722;SHT31;58309;45.292;11.820;2023-07-13T04:28:55;21.41;91.58
67722;SHT31;58309;45.292;11.820;2023-07-13T04:31:21;21.43;91.35
67722;SHT31;58309;45.292;11.820;2023-07-13T04:33:47;21.43;91.07
67722;SHT31;58309;45.292;11.820;2023-07-13T04:36:14;21.45;91.27
67722;SHT31;58309;45.292;11.820;2023-07-13T04:38:40;21.45;91.41
67722;SHT31;58309;45.292;11.820;2023-07-13T04:41:07;21.43;91.26
67722;SHT31;58309;45.292;11.820;2023-07-13T04:43:33;21.46;91.59
67722;SHT31;58309;45.292;11.820;2023-07-13T04:46:07;21.47;91.35
67722;SHT31;58309;45.292;11.820;2023-07-13T04:48:33;21.52;91.18
67722;SHT31;58309;45.292;11.820;2023-07-13T04:50:59;21.59;91.15
67722;SHT31;58309;45.292;11.820;2023-07-13T04:53:25;21.62;91.03
67722;SHT31;58309;45.292;11.820;2023-07-13T04:55:51;21.62;90.72
67722;SHT31;58309;45.292;11.820;2023-07-13T04:58:16;21.67;90.64
67722;SHT31;58309;45.292;11.820;2023-07-13T05:00:42;21.77;90.33
67722;SHT31;58309;45.292;11.820;2023-07-13T05:03:07;21.84;89.92
67722;SHT31;58309;45.292;11.820;2023-07-13T05:05:33;21.87;89.72
67722;SHT31;58309;45.292;11.820;2023-07-13T05:07:59;21.93;89.64
67722;SHT31;58309;45.292;11.820;2023-07-13T05:10:24;21.98;89.15
67722;SHT31;58309;45.292;11.820;2023-07-13T05:12:50;22.14;88.65
67722;SHT31;58309;45.292;11.820;2023-07-13T05:15:16;22.18;87.94
67722;SHT31;58309;45.292;11.820;2023-07-13T05:17:46;22.30;87.12
67722;SHT31;58309;45.292;11.820;2023-07-13T05:20:11;22.47;87.00
67722;SHT31;58309;45.292;11.820;2023-07-13T05:22:37;22.59;85.96
67722;SHT31;58309;45.292;11.820;2023-07-13T05:25:06;22.76;85.47
67722;SHT31;58309;45.292;11.820;2023-07-13T05:27:33;22.83;86.37
67722;SHT31;58309;45.292;11.820;2023-07-13T05:29:58;22.98;84.62
67722;SHT31;58309;45.292;11.820;2023-07-13T05:32:23;23.06;84.01
67722;SHT31;58309;45.292;11.820;2023-07-13T05:34:49;23.02;84.22
67722;SHT31;58309;45.292;11.820;2023-07-13T05:37:14;23.13;84.13
67722;SHT31;58309;45.292;11.820;2023-07-13T05:39:40;23.24;83.47
67722;SHT31;58309;45.292;11.820;2023-07-13T05:42:05;23.23;83.36
67722;SHT31;58309;45.292;11.820;2023-07-13T05:44:31;23.13;83.55
67722;SHT31;58309;45.292;11.820;2023-07-13T05:46:56;23.36;83.70
67722;SHT31;58309;45.292;11.820;2023-07-13T05:49:22;23.42;83.27
67722;SHT31;58309;45.292;11.820;2023-07-13T05:51:48;23.42;83.26
67722;SHT31;58309;45.292;11.820;2023-07-13T05:54:14;23.33;83.59
67722;SHT31;58309;45.292;11.820;2023-07-13T05:56:39;23.40;83.41
67722;SHT31;58309;45.292;11.820;2023-07-13T05:59:05;23.37;83.58
67722;SHT31;58309;45.292;11.820;2023-07-13T06:01:31;23.30;83.72
67722;SHT31;58309;45.292;11.820;2023-07-13T06:03:56;22.99;84.38
67722;SHT31;58309;45.292;11.820;2023-07-13T06:06:22;23.26;84.40
67722;SHT31;58309;45.292;11.820;2023-07-13T06:08:47;23.46;83.25
67722;SHT31;58309;45.292;11.820;2023-07-13T06:11:20;23.70;82.95
67722;SHT31;58309;45.292;11.820;2023-07-13T06:13:46;23.84;82.59
67722;SHT31;58309;45.292;11.820;2023-07-13T06:16:12;23.89;82.14
67722;SHT31;58309;45.292;11.820;2023-07-13T06:18:39;23.85;82.76
67722;SHT31;58309;45.292;11.820;2023-07-13T06:21:16;23.94;82.92
67722;SHT31;58309;45.292;11.820;2023-07-13T06:23:42;24.15;81.27
67722;SHT31;58309;45.292;11.820;2023-07-13T06:26:09;24.48;80.14
67722;SHT31;58309;45.292;11.820;2023-07-13T06:28:35;24.88;80.35
67722;SHT31;58309;45.292;11.820;2023-07-13T06:31:01;24.88;79.24
67722;SHT31;58309;45.292;11.820;2023-07-13T06:33:27;24.60;79.15
67722;SHT31;58309;45.292;11.820;2023-07-13T06:35:52;24.77;78.24
67722;SHT31;58309;45.292;11.820;2023-07-13T06:38:20;24.95;78.41
67722;SHT31;58309;45.292;11.820;2023-07-13T06:40:45;25.13;78.52
67722;SHT31;58309;45.292;11.820;2023-07-13T06:43:11;25.28;77.63
67722;SHT31;58309;45.292;11.820;2023-07-13T06:45:40;25.13;78.30
67722;SHT31;58309;45.292;11.820;2023-07-13T06:48:06;25.17;78.50
67722;SHT31;58309;45.292;11.820;2023-07-13T06:50:33;25.13;78.00
67722;SHT31;58309;45.292;11.820;2023-07-13T06:52:59;25.08;78.20
67722;SHT31;58309;45.292;11.820;2023-07-13T06:55:25;25.24;78.02
67722;SHT31;58309;45.292;11.820;2023-07-13T06:57:50;25.18;77.76
67722;SHT31;58309;45.292;11.820;2023-07-13T07:00:16;25.28;77.57
67722;SHT31;58309;45.292;11.820;2023-07-13T07:02:41;25.32;76.88
67722;SHT31;58309;45.292;11.820;2023-07-13T07:05:07;25.39;77.28
67722;SHT31;58309;45.292;11.820;2023-07-13T07:07:32;25.28;76.13
67722;SHT31;58309;45.292;11.820;2023-07-13T07:09:58;25.38;76.60
67722;SHT31;58309;45.292;11.820;2023-07-13T07:12:23;25.27;76.47
67722;SHT31;58309;45.292;11.820;2023-07-13T07:14:49;25.25;77.06
67722;SHT31;58309;45.292;11.820;2023-07-13T07:17:14;25.46;77.15
67722;SHT31;58309;45.292;11.820;2023-07-13T07:19:39;25.57;76.93
67722;SHT31;58309;45.292;11.820;2023-07-13T07:22:06;25.76;76.62
67722;SHT31;58309;45.292;11.820;2023-07-13T07:24:31;25.89;74.76
67722;SHT31;58309;45.292;11.820;2023-07-13T07:26:57;25.88;75.00
67722;SHT31;58309;45.292;11.820;2023-07-13T07:29:22;25.95;74.78
67722;SHT31;58309;45.292;11.820;2023-07-13T07:31:48;25.88;75.49
67722;SHT31;58309;45.292;11.820;2023-07-13T07:34:13;25.73;75.19
67722;SHT31;58309;45.292;11.820;2023-07-13T07:36:38;25.62;75.09
67722;SHT31;58309;45.292;11.820;2023-07-13T07:39:04;25.45;76.22
67722;SHT31;58309;45.292;11.820;2023-07-13T07:41:30;25.46;76.45
67722;SHT31;58309;45.292;11.820;2023-07-13T07:43:55;25.37;76.13
67722;SHT31;58309;45.292;11.820;2023-07-13T07:46:21;25.35;76.68
67722;SHT31;58309;45.292;11.820;2023-07-13T07:48:46;25.30;76.78
67722;SHT31;58309;45.292;11.820;2023-07-13T07:51:11;25.25;76.24
67722;SHT31;58309;45.292;11.820;2023-07-13T07:53:37;25.18;77.31
67722;SHT31;58309;45.292;11.820;2023-07-13T07:56:03;25.23;76.31
67722;SHT31;58309;45.292;11.820;2023-07-13T07:58:28;25.11;76.65
67722;SHT31;58309;45.292;11.820;2023-07-13T08:00:54;25.08;76.57
67722;SHT31;58309;45.292;11.820;2023-07-13T08:03:19;25.08;77.04
67722;SHT31;58309;45.292;11.820;2023-07-13T08:05:44;25.14;77.04
67722;SHT31;58309;45.292;11.820;2023-07-13T08:08:10;25.17;77.16
67722;SHT31;58309;45.292;11.820;2023-07-13T08:10:36;25.23;76.97
67722;SHT31;58309;45.292;11.820;2023-07-13T08:13:02;25.28;76.62
67722;SHT31;58309;45.292;11.820;2023-07-13T08:15:28;25.30;76.21
67722;SHT31;58309;45.292;11.820;2023-07-13T08:17:54;25.21;76.89
67722;SHT31;58309;45.292;11.820;2023-07-13T08:20:19;25.15;77.63
67722;SHT31;58309;45.292;11.820;2023-07-13T08:22:45;25.10;77.43
67722;SHT31;58309;45.292;11.820;2023-07-13T08:25:10;24.98;76.96
67722;SHT31;58309;45.292;11.820;2023-07-13T08:27:35;24.95;78.08
67722;SHT31;58309;45.292;11.820;2023-07-13T08:30:01;24.83;77.96
67722;SHT31;58309;45.292;11.820;2023-07-13T08:32:26;24.69;78.92
67722;SHT31;58309;45.292;11.820;2023-07-13T08:34:52;24.64;78.41
67722;SHT31;58309;45.292;11.820;2023-07-13T08:37:18;24.63;78.63
67722;SHT31;58309;45.292;11.820;2023-07-13T08:39:44;24.59;78.90
67722;SHT31;58309;45.292;11.820;2023-07-13T08:45:19;24.59;78.88
67722;SHT31;58309;45.292;11.820;2023-07-13T08:48:13;24.55;79.53
67722;SHT31;58309;45.292;11.820;2023-07-13T08:50:58;24.53;78.86
67722;SHT31;58309;45.292;11.820;2023-07-13T08:53:34;24.49;78.94
67722;SHT31;58309;45.292;11.820;2023-07-13T08:56:02;24.46;78.43
67722;SHT31;58309;45.292;11.820;2023-07-13T08:58:28;24.49;79.35
67722;SHT31;58309;45.292;11.820;2023-07-13T09:01:28;24.48;78.56
67722;SHT31;58309;45.292;11.820;2023-07-13T09:04:09;24.46;79.72
67722;SHT31;58309;45.292;11.820;2023-07-13T09:14:48;24.08;80.29
67722;SHT31;58309;45.292;11.820;2023-07-13T09:17:33;24.01;80.09
67722;SHT31;58309;45.292;11.820;2023-07-13T09:22:38;23.67;81.82
67722;SHT31;58309;45.292;11.820;2023-07-13T09:25:29;23.60;82.08
67722;SHT31;58309;45.292;11.820;2023-07-13T09:28:02;23.57;82.20
67722;SHT31;58309;45.292;11.820;2023-07-13T09:33:14;23.57;82.06
67722;SHT31;58309;45.292;11.820;2023-07-13T09:35:40;23.61;82.24
67722;SHT31;58309;45.292;11.820;2023-07-13T09:38:15;23.60;82.52
67722;SHT31;58309;45.292;11.820;2023-07-13T09:40:59;23.57;81.85
67722;SHT31;58309;45.292;11.820;2023-07-13T09:43:26;23.54;82.31
67722;SHT31;58309;45.292;11.820;2023-07-13T09:45:55;23.55;82.26
67722;SHT31;58309;45.292;11.820;2023-07-13T09:48:21;23.50;81.18
67722;SHT31;58309;45.292;11.820;2023-07-13T09:50:46;23.50;82.89
67722;SHT31;58309;45.292;11.820;2023-07-13T09:53:17;23.49;83.21
67722;SHT31;58309;45.292;11.820;2023-07-13T09:55:45;23.53;81.64
67722;SHT31;58309;45.292;11.820;2023-07-13T09:58:17;23.50;81.69
67722;SHT31;58309;45.292;11.820;2023-07-13T10:00:55;23.53;81.08
67722;SHT31;58309;45.292;11.820;2023-07-13T10:03:29;23.55;80.94
67722;SHT31;58309;45.292;11.820;2023-07-13T10:06:12;23.61;81.23
67722;SHT31;58309;45.292;11.820;2023-07-13T10:08:37;23.64;81.38
67722;SHT31;58309;45.292;11.820;2023-07-13T10:11:10;23.65;81.08
67722;SHT31;58309;45.292;11.820;2023-07-13T10:13:39;23.71;80.63
67722;SHT31;58309;45.292;11.820;2023-07-13T10:16:07;23.82;80.28
67722;SHT31;58309;45.292;11.820;2023-07-13T10:18:53;24.01;79.98
67722;SHT31;58309;45.292;11.820;2023-07-13T10:21:22;24.29;78.89
67722;SHT31;58309;45.292;11.820;2023-07-13T10:23:52;24.64;77.77
67722;SHT31;58309;45.292;11.820;2023-07-13T10:26:24;25.11;76.24
67722;SHT31;58309;45.292;11.820;2023-07-13T10:28:54;25.61;72.68
67722;SHT31;58309;45.292;11.820;2023-07-13T10:31:20;26.54;72.66
67722;SHT31;58309;45.292;11.820;2023-07-13T10:33:46;27.25;67.59
67722;SHT31;58309;45.292;11.820;2023-07-13T10:36:16;28.22;64.23
67722;SHT31;58309;45.292;11.820;2023-07-13T10:38:43;29.02;60.76
67722;SHT31;58309;45.292;11.820;2023-07-13T10:41:15;29.38;60.63
67722;SHT31;58309;45.292;11.820;2023-07-13T10:43:44;29.16;61.00
67722;SHT31;58309;45.292;11.820;2023-07-13T10:46:13;29.20;61.47
67722;SHT31;58309;45.292;11.820;2023-07-13T10:48:40;30.73;56.54
67722;SHT31;58309;45.292;11.820;2023-07-13T10:51:10;31.68;54.58
67722;SHT31;58309;45.292;11.820;2023-07-13T10:53:37;33.01;54.97
67722;SHT31;58309;45.292;11.820;2023-07-13T10:56:28;34.44;50.99
67722;SHT31;58309;45.292;11.820;2023-07-13T11:04:31;36.78;44.69
67722;SHT31;58309;45.292;11.820;2023-07-13T11:07:11;37.07;42.70
67722;SHT31;58309;45.292;11.820;2023-07-13T11:09:41;36.61;43.09
67722;SHT31;58309;45.292;11.820;2023-07-13T11:15:12;37.64;42.51
67722;SHT31;58309;45.292;11.820;2023-07-13T11:17:50;37.47;43.31
67722;SHT31;58309;45.292;11.820;2023-07-13T11:23:06;36.41;47.85
67722;SHT31;58309;45.292;11.820;2023-07-13T11:25:34;37.61;45.23
67722;SHT31;58309;45.292;11.820;2023-07-13T11:33:30;36.25;47.42
67722;SHT31;58309;45.292;11.820;2023-07-13T11:38:27;34.92;48.38
67722;SHT31;58309;45.292;11.820;2023-07-13T11:40:54;36.45;47.19
67722;SHT31;58309;45.292;11.820;2023-07-13T11:43:20;36.76;46.45
67722;SHT31;58309;45.292;11.820;2023-07-13T11:45:49;37.56;45.54
67722;SHT31;58309;45.292;11.820;2023-07-13T11:48:27;36.48;47.03
67722;SHT31;58309;45.292;11.820;2023-07-13T11:51:00;37.73;46.15
67722;SHT31;58309;45.292;11.820;2023-07-13T11:53:29;36.78;45.66
67722;SHT31;58309;45.292;11.820;2023-07-13T11:55:57;36.28;46.78
67722;SHT31;58309;45.292;11.820;2023-07-13T11:58:24;35.69;48.38
67722;SHT31;58309;45.292;11.820;2023-07-13T12:00:50;35.32;50.35
67722;SHT31;58309;45.292;11.820;2023-07-13T12:03:20;35.84;48.71
67722;SHT31;58309;45.292;11.820;2023-07-13T12:05:57;35.78;48.37
67722;SHT31;58309;45.292;11.820;2023-07-13T12:08:23;36.89;46.57
67722;SHT31;58309;45.292;11.820;2023-07-13T12:10:56;37.71;45.73
67722;SHT31;58309;45.292;11.820;2023-07-13T12:13:22;37.19;48.28
67722;SHT31;58309;45.292;11.820;2023-07-13T12:15:48;37.89;44.61
67722;SHT31;58309;45.292;11.820;2023-07-13T12:18:18;38.12;45.91
67722;SHT31;58309;45.292;11.820;2023-07-13T12:20:45;38.74;43.31
67722;SHT31;58309;45.292;11.820;2023-07-13T12:25:46;38.58;43.88
67722;SHT31;58309;45.292;11.820;2023-07-13T12:31:41;36.78;44.86
67722;SHT31;58309;45.292;11.820;2023-07-13T12:34:13;36.15;47.27
67722;SHT31;58309;45.292;11.820;2023-07-13T12:37:08;34.81;50.19
67722;SHT31;58309;45.292;11.820;2023-07-13T12:39:43;33.39;51.71
67722;SHT31;58309;45.292;11.820;2023-07-13T12:42:31;32.68;54.13
67722;SHT31;58309;45.292;11.820;2023-07-13T12:45:11;32.63;53.88
67722;SHT31;58309;45.292;11.820;2023-07-13T12:47:42;32.40;51.98
67722;SHT31;58309;45.292;11.820;2023-07-13T12:50:19;32.34;54.85
67722;SHT31;58309;45.292;11.820;2023-07-13T12:52:51;32.23;54.96
67722;SHT31;58309;45.292;11.820;2023-07-13T12:55:18;32.02;54.10
67722;SHT31;58309;45.292;11.820;2023-07-13T13:00:39;31.69;56.07
67722;SHT31;58309;45.292;11.820;2023-07-13T13:03:21;31.73;56.61
67722;SHT31;58309;45.292;11.820;2023-07-13T13:05:47;31.55;57.49
67722;SHT31;58309;45.292;11.820;2023-07-13T13:08:13;31.51;57.27
67722;SHT31;58309;45.292;11.820;2023-07-13T13:10:38;31.37;58.18
67722;SHT31;58309;45.292;11.820;2023-07-13T13:13:04;31.39;57.34
67722;SHT31;58309;45.292;11.820;2023-07-13T13:15:29;31.37;57.76
67722;SHT31;58309;45.292;11.820;2023-07-13T13:17:56;31.48;58.04
67722;SHT31;58309;45.292;11.820;2023-07-13T13:20:24;31.73;58.91
67722;SHT31;58309;45.292;11.820;2023-07-13T13:22:51;31.52;57.63
67722;SHT31;58309;45.292;11.820;2023-07-13T13:25:17;31.37;58.46
67722;SHT31;58309;45.292;11.820;2023-07-13T13:27:44;31.10;58.02
67722;SHT31;58309;45.292;11.820;2023-07-13T13:30:15;31.35;58.63
67722;SHT31;58309;45.292;11.820;2023-07-13T13:32:43;31.63;59.03
67722;SHT31;58309;45.292;11.820;2023-07-13T13:35:17;31.63;59.24
67722;SHT31;58309;45.292;11.820;2023-07-13T13:37:44;31.68;57.72
67722;SHT31;58309;45.292;11.820;2023-07-13T13:40:18;31.44;58.15
67722;SHT31;58309;45.292;11.820;2023-07-13T13:42:44;31.31;56.99
67722;SHT31;58309;45.292;11.820;2023-07-13T13:45:10;31.35;57.70
67722;SHT31;58309;45.292;11.820;2023-07-13T13:47:38;31.25;56.64
67722;SHT31;58309;45.292;11.820;2023-07-13T13:50:19;31.42;57.21
67722;SHT31;58309;45.292;11.820;2023-07-13T13:52:45;31.68;59.13
67722;SHT31;58309;45.292;11.820;2023-07-13T13:55:15;31.58;57.75
67722;SHT31;58309;45.292;11.820;2023-07-13T13:57:40;31.65;59.24
67722;SHT31;58309;45.292;11.820;2023-07-13T14:00:09;31.94;58.84
67722;SHT31;58309;45.292;11.820;2023-07-13T14:02:37;32.00;57.91
67722;SHT31;58309;45.292;11.820;2023-07-13T14:05:03;31.93;57.12
67722;SHT31;58309;45.292;11.820;2023-07-13T14:07:30;32.09;57.94
67722;SHT31;58309;45.292;11.820;2023-07-13T14:09:57;32.22;57.07
67722;SHT31;58309;45.292;11.820;2023-07-13T14:12:23;32.17;56.55
67722;SHT31;58309;45.292;11.820;2023-07-13T14:14:51;32.06;56.39
67722;SHT31;58309;45.292;11.820;2023-07-13T14:17:25;32.13;57.09
67722;SHT31;58309;45.292;11.820;2023-07-13T14:19:52;32.34;56.51
67722;SHT31;58309;45.292;11.820;2023-07-13T14:22:23;32.78;55.31
67722;SHT31;58309;45.292;11.820;2023-07-13T14:24:51;33.11;56.05
67722;SHT31;58309;45.292;11.820;2023-07-13T14:27:16;32.87;54.73
67722;SHT31;58309;45.292;11.820;2023-07-13T14:29:41;32.70;55.67
67722;SHT31;58309;45.292;11.820;2023-07-13T14:32:11;32.41;55.47
67722;SHT31;58309;45.292;11.820;2023-07-13T14:34:37;32.36;56.55
67722;SHT31;58309;45.292;11.820;2023-07-13T14:37:03;32.63;56.64
67722;SHT31;58309;45.292;11.820;2023-07-13T14:39:30;32.54;55.86
67722;SHT31;58309;45.292;11.820;2023-07-13T14:41:56;32.77;55.33
67722;SHT31;58309;45.292;11.820;2023-07-13T14:44:26;32.77;54.16
67722;SHT31;58309;45.292;11.820;2023-07-13T14:46:52;32.63;55.88
67722;SHT31;58309;45.292;11.820;2023-07-13T14:49:34;32.29;55.29
67722;SHT31;58309;45.292;11.820;2023-07-13T14:52:03;32.41;56.28
67722;SHT31;58309;45.292;11.820;2023-07-13T14:54:30;32.31;56.07
67722;SHT31;58309;45.292;11.820;2023-07-13T14:56:56;32.00;57.10
67722;SHT31;58309;45.292;11.820;2023-07-13T14:59:21;31.59;57.56
67722;SHT31;58309;45.292;11.820;2023-07-13T15:01:48;31.59;57.79
67722;SHT31;58309;45.292;11.820;2023-07-13T15:04:15;31.55;57.87
67722;SHT31;58309;45.292;11.820;2023-07-13T15:06:58;31.71;57.73
67722;SHT31;58309;45.292;11.820;2023-07-13T15:09:28;31.79;59.84
67722;SHT31;58309;45.292;11.820;2023-07-13T15:11:57;31.92;60.27
67722;SHT31;58309;45.292;11.820;2023-07-13T15:14:22;32.03;59.59
67722;SHT31;58309;45.292;11.820;2023-07-13T15:16:52;32.23;58.22
67722;SHT31;58309;45.292;11.820;2023-07-13T15:19:19;32.30;57.18
67722;SHT31;58309;45.292;11.820;2023-07-13T15:21:46;32.37;58.06
67722;SHT31;58309;45.292;11.820;2023-07-13T15:24:12;32.43;56.86
67722;SHT31;58309;45.292;11.820;2023-07-13T15:26:38;32.70;56.83
67722;SHT31;58309;45.292;11.820;2023-07-13T15:29:04;32.84;56.77
67722;SHT31;58309;45.292;11.820;2023-07-13T15:31:31;32.98;57.86
67722;SHT31;58309;45.292;11.820;2023-07-13T15:33:59;32.77;57.52
67722;SHT31;58309;45.292;11.820;2023-07-13T15:36:25;32.68;57.21
67722;SHT31;58309;45.292;11.820;2023-07-13T15:38:53;32.36;58.04
67722;SHT31;58309;45.292;11.820;2023-07-13T15:41:21;32.00;59.25
67722;SHT31;58309;45.292;11.820;2023-07-13T15:43:51;31.72;58.86
67722;SHT31;58309;45.292;11.820;2023-07-13T15:46:18;31.89;58.27
67722;SHT31;58309;45.292;11.820;2023-07-13T15:48:46;31.99;57.75
67722;SHT31;58309;45.292;11.820;2023-07-13T15:51:20;32.09;59.62
67722;SHT31;58309;45.292;11.820;2023-07-13T15:53:46;31.66;59.35
67722;SHT31;58309;45.292;11.820;2023-07-13T15:56:28;31.24;59.66
67722;SHT31;58309;45.292;11.820;2023-07-13T15:58:55;30.80;62.24
67722;SHT31;58309;45.292;11.820;2023-07-13T16:01:22;30.33;61.35
67722;SHT31;58309;45.292;11.820;2023-07-13T16:03:49;30.40;61.92